METAR Data
IDs: Format: Raw Decoded Include TAF

Data at: 1341 UTC 27 Nov 2021

EKVD 271250Z 09010KT 9999 FEW010 BKN060 04/02 Q0992